Decoded Metar for GCHI (HIERRO in SPAIN) (IATA:VDE) | Meteo·Mobile Aviation Weather
aviador You're here:

GCHI Decoded Metar

HIERRO in SPAIN
Report Time2019-09-21 09:30:00
UTC Time2019-09-21 09:41:24
Flight Rules vfr VFR
Wind360° at 07 kt
W.Decomp.*RWY 34: 6.2 kt HW 3.2 kt RCW
Visibility9999 m
Phenomena:N/A
Clouds:N/A
Expected CloudBase > 2,400 ft AGL from Temp-Dew spread
CeilingNone
Temp25°C (ISA +10)
Dew Point19°C (69% RH)
QNH1017 hPa
Density Alt1,434 ft
Elevation98 ft
Report Wrong Elevation
Raw Report
METAR GCHI 210930Z 36007KT 320V080 CAVOK 25/19 Q1017=

Extra information for GCHI:More info

Metar Taf Metar & Taf Last 4 Metars F.Rules Stats Wind Profile Meteogram Temp Stats Airport Information Weather charts Add Link Nearby VenuesMetar ALERT Operation Metar Decoded Social comments